Time;durP1;ratioP1;P1;durP2;ratioP2;P2;SDS_P1;SDS_P2;PMS_P1;PMS_P2;Temp;Humidity;BMP_temperature;BMP_pressure;BME280_temperature;BME280_humidity;BME280_pressure;Samples;Min_cycle;Max_cycle;Signal;HPM_P1;HPM_P2
2022/07/19 00:01:16;;;;;;;3.40;2.10;;;17.60;99.90;;;;;;5020258;28;20053;-85
2022/07/19 00:03:41;;;;;;;2.70;1.63;;;17.60;99.90;;;;;;4997216;28;20425;-85
2022/07/19 00:06:07;;;;;;;4.20;2.22;;;17.50;99.90;;;;;;5012652;28;20077;-84
2022/07/19 00:08:32;;;;;;;3.40;1.92;;;17.50;99.90;;;;;;4995865;28;20033;-85
2022/07/19 00:10:58;;;;;;;5.88;1.92;;;17.50;99.90;;;;;;5012848;28;20033;-85
2022/07/19 00:13:24;;;;;;;3.33;1.83;;;17.40;99.90;;;;;;5012559;28;20026;-84
2022/07/19 00:15:49;;;;;;;4.28;2.55;;;17.40;99.90;;;;;;5010004;28;20088;-85
2022/07/19 00:18:15;;;;;;;3.55;1.90;;;17.40;99.90;;;;;;5013503;28;20034;-84
2022/07/19 00:20:40;;;;;;;3.65;2.03;;;17.40;99.90;;;;;;5012544;28;20109;-84
2022/07/19 00:23:06;;;;;;;5.53;2.08;;;17.30;99.90;;;;;;5012023;28;20062;-83
2022/07/19 00:25:31;;;;;;;4.93;2.30;;;17.30;99.90;;;;;;5011055;28;20488;-84
2022/07/19 00:27:57;;;;;;;5.72;2.40;;;17.30;99.90;;;;;;5012350;28;20022;-84
2022/07/19 00:30:22;;;;;;;2.67;1.75;;;17.30;99.90;;;;;;5012462;28;20033;-84
2022/07/19 00:32:48;;;;;;;3.42;2.00;;;17.30;99.90;;;;;;5008523;28;20505;-85
2022/07/19 00:35:13;;;;;;;5.15;1.67;;;17.20;99.90;;;;;;5014507;28;20319;-84
2022/07/19 00:37:39;;;;;;;3.60;2.15;;;17.20;99.90;;;;;;5013180;28;20021;-84
2022/07/19 00:40:05;;;;;;;4.88;2.03;;;17.20;99.90;;;;;;5015410;28;20052;-84
2022/07/19 00:42:30;;;;;;;4.97;2.78;;;17.20;99.90;;;;;;5010795;28;20424;-84
2022/07/19 00:44:57;;;;;;;5.88;2.40;;;;;;;;;;5007864;28;20026;-85
2022/07/19 00:47:25;;;;;;;6.65;2.00;;;;;;;;;;5007538;28;20026;-84
2022/07/19 00:49:52;;;;;;;3.53;1.63;;;;;;;;;;5011436;28;20113;-85
2022/07/19 00:52:20;;;;;;;2.72;2.20;;;;;;;;;;5011419;28;20395;-85
2022/07/19 00:54:49;;;;;;;3.95;1.65;;;;;;;;;;5011284;28;20057;-85
2022/07/19 00:57:17;;;;;;;2.60;1.63;;;;;;;;;;5011058;28;20025;-84
2022/07/19 00:59:43;;;;;;;4.00;2.08;;;16.70;99.90;;;;;;5011321;28;20049;-84
2022/07/19 01:02:11;;;;;;;2.80;2.00;;;17.00;99.90;;;;;;5009824;28;20428;-83
2022/07/19 01:04:37;;;;;;;3.63;1.55;;;17.00;99.90;;;;;;5008587;28;20037;-84
2022/07/19 01:07:03;;;;;;;3.33;1.90;;;17.00;99.90;;;;;;5008647;28;20037;-85
2022/07/19 01:09:29;;;;;;;4.25;2.30;;;16.90;99.90;;;;;;5008935;28;20388;-85
2022/07/19 01:11:55;;;;;;;2.75;1.85;;;16.90;99.90;;;;;;5009292;28;20022;-84
2022/07/19 01:14:21;;;;;;;3.05;1.80;;;16.90;99.90;;;;;;5010456;28;20030;-85
2022/07/19 01:16:46;;;;;;;3.28;1.75;;;16.90;99.90;;;;;;5009208;28;20448;-84
2022/07/19 01:19:13;;;;;;;2.17;1.70;;;16.80;99.90;;;;;;5008590;28;20030;-84
2022/07/19 01:21:39;;;;;;;4.38;2.28;;;16.80;99.90;;;;;;5013392;28;20029;-84
2022/07/19 01:24:05;;;;;;;3.80;1.80;;;16.80;99.90;;;;;;5017826;28;20437;-84
2022/07/19 01:26:30;;;;;;;5.82;2.85;;;16.70;99.90;;;;;;5014006;28;20026;-85
2022/07/19 01:28:56;;;;;;;4.07;2.20;;;16.80;99.90;;;;;;5011732;28;20021;-84
2022/07/19 01:31:21;;;;;;;6.97;2.80;;;16.80;99.90;;;;;;5010442;28;20060;-85
2022/07/19 01:33:47;;;;;;;2.88;1.63;;;16.70;99.90;;;;;;5011615;28;20113;-84
2022/07/19 01:36:12;;;;;;;5.00;1.70;;;16.70;99.90;;;;;;5013661;28;20022;-84
2022/07/19 01:38:39;;;;;;;3.53;1.92;;;16.70;99.90;;;;;;5009334;28;20044;-84
2022/07/19 01:41:06;;;;;;;4.28;1.95;;;16.70;99.90;;;;;;5020793;28;20033;-85
2022/07/19 01:43:32;;;;;;;3.63;1.83;;;16.70;99.90;;;;;;5017375;28;20362;-85
2022/07/19 01:45:57;;;;;;;4.63;2.00;;;16.70;99.90;;;;;;5008429;28;20466;-84
2022/07/19 01:48:24;;;;;;;3.40;1.88;;;16.60;99.90;;;;;;5019117;28;20040;-85
2022/07/19 01:50:50;;;;;;;4.50;1.90;;;16.60;99.90;;;;;;4993394;28;20493;-84
2022/07/19 01:53:15;;;;;;;3.95;2.20;;;16.60;99.90;;;;;;5016161;28;20040;-84
2022/07/19 01:55:41;;;;;;;3.38;2.10;;;16.60;99.90;;;;;;5010890;28;20644;-84
2022/07/19 01:58:06;;;;;;;5.88;1.90;;;16.50;99.90;;;;;;5007424;28;20102;-84
2022/07/19 02:00:32;;;;;;;2.30;1.80;;;16.50;99.90;;;;;;5010399;28;20033;-84
2022/07/19 02:02:57;;;;;;;3.58;1.80;;;16.40;99.90;;;;;;5010984;28;20363;-84
2022/07/19 02:05:26;;;;;;;3.97;1.98;;;;;;;;;;5010715;28;20385;-84
2022/07/19 02:07:52;;;;;;;3.17;2.05;;;16.40;99.90;;;;;;5011108;28;20025;-84
2022/07/19 02:10:18;;;;;;;4.25;1.70;;;16.30;99.90;;;;;;5010782;28;20028;-85
2022/07/19 02:12:44;;;;;;;2.60;1.77;;;16.30;99.90;;;;;;5021171;28;20396;-83
2022/07/19 02:15:10;;;;;;;3.55;1.80;;;16.30;99.90;;;;;;5028430;28;20031;-84
2022/07/19 02:17:36;;;;;;;4.95;2.05;;;16.20;99.90;;;;;;5021190;28;20041;-82
2022/07/19 02:20:03;;;;;;;3.90;2.70;;;16.30;99.90;;;;;;5010858;28;20065;-84
2022/07/19 02:22:28;;;;;;;3.90;2.03;;;16.20;99.90;;;;;;5009945;28;20370;-84
2022/07/19 02:24:54;;;;;;;4.03;2.13;;;16.20;99.90;;;;;;5010495;28;20069;-84
2022/07/19 02:27:19;;;;;;;4.63;2.15;;;16.20;99.90;;;;;;5010430;28;20520;-83
2022/07/19 02:29:45;;;;;;;2.55;1.90;;;16.20;99.90;;;;;;5007099;28;20014;-85
2022/07/19 02:32:11;;;;;;;2.05;1.45;;;16.10;99.90;;;;;;5013609;28;20438;-84
2022/07/19 02:34:36;;;;;;;2.97;2.10;;;16.10;99.90;;;;;;5004691;28;20022;-84
2022/07/19 02:37:02;;;;;;;2.13;1.23;;;16.00;99.90;;;;;;5010560;28;20029;-82
2022/07/19 02:39:28;;;;;;;2.42;1.60;;;16.00;99.90;;;;;;5009880;28;20069;-84
2022/07/19 02:41:53;;;;;;;2.15;1.52;;;16.00;99.90;;;;;;5010656;28;20037;-84
2022/07/19 02:44:18;;;;;;;2.40;1.80;;;16.00;99.90;;;;;;5009540;28;20026;-84
2022/07/19 02:46:44;;;;;;;3.15;2.10;;;16.00;99.90;;;;;;5009632;28;20029;-84
2022/07/19 02:49:09;;;;;;;5.28;1.83;;;16.00;99.90;;;;;;5006513;28;20537;-84
2022/07/19 02:51:35;;;;;;;3.90;2.10;;;15.90;99.90;;;;;;5005022;28;20026;-84
2022/07/19 02:54:00;;;;;;;2.78;1.60;;;16.00;99.90;;;;;;5006714;28;20488;-85
2022/07/19 02:56:26;;;;;;;4.00;2.20;;;15.90;99.90;;;;;;4991521;28;20052;-85
2022/07/19 02:58:52;;;;;;;3.78;1.48;;;15.90;99.90;;;;;;5012973;28;20033;-85
2022/07/19 03:01:17;;;;;;;3.35;2.25;;;15.90;99.90;;;;;;5009319;28;20084;-84
2022/07/19 03:03:50;;;;;;;4.20;2.25;;;15.90;99.90;;;;;;5009354;28;20490;-85
2022/07/19 03:06:17;;;;;;;2.70;1.67;;;15.80;99.90;;;;;;5006699;28;20098;-85
2022/07/19 03:08:43;;;;;;;5.78;2.10;;;15.80;99.90;;;;;;5010015;28;20025;-85
2022/07/19 03:11:09;;;;;;;3.67;2.00;;;15.80;99.90;;;;;;5009786;28;20022;-85
2022/07/19 03:13:35;;;;;;;3.17;2.00;;;15.80;99.90;;;;;;5009051;28;20396;-85
2022/07/19 03:16:00;;;;;;;4.53;1.85;;;15.80;99.90;;;;;;5009563;28;20121;-84
2022/07/19 03:18:26;;;;;;;2.90;1.80;;;15.80;99.90;;;;;;5007186;28;20030;-85
2022/07/19 03:20:51;;;;;;;2.05;1.70;;;15.80;99.90;;;;;;5006502;28;20052;-85
2022/07/19 03:23:17;;;;;;;4.85;2.33;;;15.80;99.90;;;;;;5011742;28;20026;-85
2022/07/19 03:25:42;;;;;;;2.95;1.92;;;15.80;99.90;;;;;;4996571;28;20057;-84
2022/07/19 03:28:08;;;;;;;3.55;2.15;;;15.80;99.90;;;;;;5018123;28;20029;-85
2022/07/19 03:30:33;;;;;;;2.28;1.60;;;15.80;99.90;;;;;;5009707;28;20441;-85
2022/07/19 03:32:59;;;;;;;3.22;1.90;;;15.80;99.90;;;;;;5010164;28;20080;-85
2022/07/19 03:35:24;;;;;;;3.05;1.73;;;15.80;99.90;;;;;;5006663;28;20477;-85
2022/07/19 03:37:50;;;;;;;3.10;1.90;;;15.80;99.90;;;;;;5013442;28;20155;-85
2022/07/19 03:40:15;;;;;;;2.67;1.80;;;15.80;99.90;;;;;;5014969;28;20033;-84
2022/07/19 03:42:41;;;;;;;2.30;1.52;;;15.80;99.90;;;;;;5009955;28;20022;-85
2022/07/19 03:45:07;;;;;;;3.30;1.80;;;15.80;99.90;;;;;;5015303;28;20112;-85
2022/07/19 03:47:33;;;;;;;3.15;1.75;;;15.90;99.90;;;;;;5008242;28;20030;-85
2022/07/19 03:49:58;;;;;;;3.13;1.90;;;15.90;99.90;;;;;;5009435;28;20022;-85
2022/07/19 03:52:24;;;;;;;6.20;1.77;;;15.90;99.90;;;;;;5009449;28;20022;-85
2022/07/19 03:54:50;;;;;;;5.63;2.13;;;15.90;99.90;;;;;;5005483;28;20481;-85
2022/07/19 03:57:15;;;;;;;4.03;1.90;;;15.90;99.90;;;;;;5008439;28;20030;-85
2022/07/19 03:59:42;;;;;;;3.30;1.52;;;15.90;99.90;;;;;;5012140;28;20029;-85
2022/07/19 04:02:07;;;;;;;3.95;2.22;;;15.90;99.90;;;;;;5012589;28;20044;-85
2022/07/19 04:04:33;;;;;;;3.20;1.60;;;15.90;99.90;;;;;;5012326;28;20119;-85
2022/07/19 04:06:58;;;;;;;1.95;1.73;;;15.90;99.90;;;;;;5012655;28;20026;-83
2022/07/19 04:09:24;;;;;;;2.28;1.77;;;15.90;99.90;;;;;;5013188;28;20025;-84
2022/07/19 04:11:49;;;;;;;5.22;2.10;;;16.00;99.90;;;;;;5012480;28;20049;-85
2022/07/19 04:14:15;;;;;;;3.75;2.40;;;16.00;99.90;;;;;;5013283;28;20029;-85
2022/07/19 04:16:40;;;;;;;4.68;2.00;;;16.00;99.90;;;;;;5013060;28;20073;-84
2022/07/19 04:19:06;;;;;;;2.70;1.80;;;16.10;99.90;;;;;;5016523;28;20069;-85
2022/07/19 04:21:31;;;;;;;3.13;1.90;;;16.10;99.90;;;;;;5012339;28;20030;-84
2022/07/19 04:23:57;;;;;;;3.13;1.67;;;16.10;99.90;;;;;;5012729;28;20025;-84
2022/07/19 04:26:23;;;;;;;3.95;1.77;;;16.10;99.90;;;;;;5012624;28;20026;-83
2022/07/19 04:28:48;;;;;;;4.55;2.30;;;16.20;99.90;;;;;;5010573;28;20026;-84
2022/07/19 04:31:14;;;;;;;3.45;1.73;;;16.20;99.90;;;;;;5017152;28;20520;-85
2022/07/19 04:33:40;;;;;;;3.92;1.50;;;16.20;99.90;;;;;;5014291;28;20030;-84
2022/07/19 04:36:06;;;;;;;4.07;2.35;;;16.30;99.90;;;;;;5012679;28;20026;-84
2022/07/19 04:38:31;;;;;;;4.90;1.95;;;16.30;99.90;;;;;;5010805;28;20033;-84
2022/07/19 04:40:57;;;;;;;3.00;1.50;;;16.30;99.90;;;;;;5012244;28;20022;-84
2022/07/19 04:43:22;;;;;;;1.73;1.63;;;16.40;99.90;;;;;;5010280;28;20113;-85
2022/07/19 04:45:48;;;;;;;7.50;1.85;;;16.40;99.90;;;;;;5007084;28;20029;-85
2022/07/19 04:48:14;;;;;;;2.97;1.75;;;16.40;99.90;;;;;;4998063;28;20169;-86
2022/07/19 04:50:40;;;;;;;3.38;2.17;;;16.40;99.90;;;;;;5011856;28;20057;-86
2022/07/19 04:53:07;;;;;;;2.30;1.70;;;16.50;99.90;;;;;;5012468;28;20585;-85
2022/07/19 04:55:32;;;;;;;3.53;2.10;;;16.60;99.90;;;;;;5012271;28;20032;-86
2022/07/19 04:57:58;;;;;;;2.33;1.35;;;16.60;99.90;;;;;;5011935;28;20493;-85
2022/07/19 05:00:23;;;;;;;3.05;1.52;;;16.70;99.90;;;;;;5011704;28;20109;-86
2022/07/19 05:02:49;;;;;;;4.18;2.15;;;16.70;99.90;;;;;;5014018;28;20427;-86
2022/07/19 05:05:14;;;;;;;2.85;1.65;;;16.80;99.90;;;;;;5012006;28;20045;-85
2022/07/19 05:07:41;;;;;;;3.53;1.77;;;16.90;99.90;;;;;;5014381;28;20104;-86
2022/07/19 05:10:07;;;;;;;2.72;1.90;;;16.90;99.90;;;;;;5010437;28;20057;-85
2022/07/19 05:12:33;;;;;;;4.20;2.22;;;17.00;99.90;;;;;;5011161;28;20578;-85
2022/07/19 05:14:58;;;;;;;2.90;1.90;;;17.10;99.90;;;;;;5010306;28;20113;-85
2022/07/19 05:17:24;;;;;;;3.30;1.85;;;17.20;99.90;;;;;;5011039;28;20065;-83
2022/07/19 05:19:50;;;;;;;2.55;1.67;;;17.30;99.90;;;;;;5011827;28;20032;-85
2022/07/19 05:22:15;;;;;;;3.50;2.00;;;17.40;99.90;;;;;;5016296;28;20465;-85
2022/07/19 05:24:41;;;;;;;1.95;1.60;;;17.50;99.90;;;;;;5007218;28;20037;-84
2022/07/19 05:27:06;;;;;;;2.17;1.58;;;17.60;99.90;;;;;;5010984;28;20358;-84
2022/07/19 05:29:32;;;;;;;1.75;1.63;;;17.90;99.90;;;;;;5010390;28;20088;-85
2022/07/19 05:31:57;;;;;;;2.20;1.38;;;18.00;99.90;;;;;;5011307;28;20055;-87
2022/07/19 05:34:22;;;;;;;2.97;1.73;;;18.10;99.90;;;;;;5011147;28;20026;-84
2022/07/19 05:36:48;;;;;;;3.40;1.33;;;18.40;99.90;;;;;;5014278;28;20153;-84
2022/07/19 05:39:14;;;;;;;4.70;1.85;;;18.60;99.90;;;;;;5012131;28;20038;-87
2022/07/19 05:41:40;;;;;;;3.10;2.03;;;18.90;99.90;;;;;;5010838;28;20030;-87
2022/07/19 05:44:05;;;;;;;2.25;1.60;;;19.10;99.90;;;;;;5010328;28;20397;-86
2022/07/19 05:46:31;;;;;;;4.53;2.25;;;19.20;99.90;;;;;;5012153;28;20405;-85
2022/07/19 05:48:57;;;;;;;3.55;1.63;;;;;;;;;;5014421;28;20018;-78
2022/07/19 05:51:23;;;;;;;1.25;1.15;;;;;;;;;;5011038;28;20029;-78
2022/07/19 05:53:49;;;;;;;4.30;1.55;;;;;;;;;;5010795;28;20042;-78
2022/07/19 05:56:15;;;;;;;1.73;1.23;;;;;;;;;;5020402;28;20033;-81
2022/07/19 05:58:41;;;;;;;1.63;1.15;;;;;;;;;;5010759;28;20044;-78
2022/07/19 06:01:19;;;;;;;3.55;1.92;;;;;;;;;;5009632;28;20061;-77
2022/07/19 06:03:53;;;;;;;1.45;1.30;;;;;;;;;;5009732;28;20022;-78
2022/07/19 06:06:19;;;;;;;2.65;1.15;;;;;;;;;;5007430;28;20041;-78
2022/07/19 06:08:45;;;;;;;3.08;1.50;;;;;;;;;;5004251;28;20033;-78
2022/07/19 06:11:11;;;;;;;1.45;1.10;;;;;;;;;;5016549;28;20049;-78
2022/07/19 06:13:38;;;;;;;1.58;0.82;;;;;;;;;;5010283;28;20029;-78
2022/07/19 06:16:05;;;;;;;2.10;1.50;;;;;;;;;;5006657;28;20780;-78
2022/07/19 06:18:34;;;;;;;2.35;1.45;;;;;;;;;;5007903;28;20021;-80
2022/07/19 06:21:00;;;;;;;2.35;1.33;;;;;;;;;;5008435;28;20099;-80
2022/07/19 06:23:26;;;;;;;2.63;1.45;;;;;;;;;;5007756;28;20100;-78
2022/07/19 06:25:52;;;;;;;3.55;0.98;;;;;;;;;;5005093;28;20026;-78
2022/07/19 06:28:18;;;;;;;1.95;1.25;;;;;;;;;;5009398;28;20026;-79
2022/07/19 06:30:44;;;;;;;1.77;0.90;;;;;;;;;;5007557;28;20472;-78
2022/07/19 06:33:10;;;;;;;2.25;1.48;;;;;;;;;;5003353;28;20252;-78
2022/07/19 06:35:36;;;;;;;2.85;1.05;;;;;;;;;;5007390;28;20038;-82
2022/07/19 06:38:02;;;;;;;0.68;0.68;;;;;;;;;;5009325;28;20033;-79
2022/07/19 06:40:28;;;;;;;3.28;1.75;;;;;;;;;;5007110;28;20044;-78
2022/07/19 06:42:54;;;;;;;3.67;1.80;;;;;;;;;;4996050;28;20072;-79
2022/07/19 06:45:20;;;;;;;1.52;1.00;;;;;;;;;;5007005;28;20033;-78
2022/07/19 06:47:46;;;;;;;1.08;1.00;;;;;;;;;;5004857;28;20054;-79
2022/07/19 06:50:12;;;;;;;2.28;1.42;;;;;;;;;;5005817;28;20109;-79
2022/07/19 06:52:38;;;;;;;8.60;1.85;;;;;;;;;;5005659;28;20044;-79
2022/07/19 06:55:04;;;;;;;1.25;1.10;;;;;;;;;;5003872;28;20030;-79
2022/07/19 06:57:30;;;;;;;1.35;1.20;;;;;;;;;;5005945;28;20116;-79
2022/07/19 06:59:56;;;;;;;3.65;1.23;;;;;;;;;;5001856;28;20034;-82
2022/07/19 07:02:22;;;;;;;1.90;1.38;;;;;;;;;;5003063;28;20034;-80
2022/07/19 07:04:48;;;;;;;2.63;1.45;;;;;;;;;;5000285;28;20038;-80
2022/07/19 07:07:14;;;;;;;5.65;1.42;;;;;;;;;;5003477;28;20029;-80
2022/07/19 07:09:41;;;;;;;1.50;1.10;;;;;;;;;;5000493;28;20021;-85
2022/07/19 07:12:08;;;;;;;3.20;1.25;;;;;;;;;;5003139;28;20242;-85
2022/07/19 07:14:37;;;;;;;1.00;0.93;;;;;;;;;;5005583;28;20050;-85
2022/07/19 07:17:03;;;;;;;1.33;1.10;;;;;;;;;;5007621;28;20057;-83
2022/07/19 07:19:29;;;;;;;1.00;0.98;;;;;;;;;;5006677;28;20108;-88
2022/07/19 07:21:59;;;;;;;2.53;1.00;;;;;;;;;;5008651;28;20034;-79
2022/07/19 07:24:25;;;;;;;1.58;1.20;;;;;;;;;;5005191;28;20036;-82
2022/07/19 07:26:51;;;;;;;1.83;1.25;;;;;;;;;;5005848;28;20026;-80
2022/07/19 07:29:16;;;;;;;0.90;0.90;;;22.50;68.50;;;;;;5004290;28;20022;-77
2022/07/19 07:31:42;;;;;;;2.30;1.13;;;22.50;70.00;;;;;;5004930;28;20477;-85
2022/07/19 07:34:08;;;;;;;1.02;0.80;;;22.50;70.90;;;;;;5008199;28;20029;-81
2022/07/19 07:36:33;;;;;;;25.15;2.65;;;22.50;70.00;;;;;;5010090;28;20468;-81
2022/07/19 07:38:58;;;;;;;1.30;0.90;;;22.40;71.40;;;;;;5011460;28;20042;-80
2022/07/19 07:41:24;;;;;;;5.20;1.05;;;22.40;70.70;;;;;;5012065;28;20021;-81
2022/07/19 07:43:49;;;;;;;3.88;1.48;;;22.50;71.10;;;;;;5011207;28;20108;-81
2022/07/19 07:46:15;;;;;;;2.10;1.33;;;22.40;70.80;;;;;;5011302;28;20026;-81
2022/07/19 07:48:41;;;;;;;2.45;1.50;;;22.60;70.80;;;;;;5010673;28;22105;-79
2022/07/19 07:51:06;;;;;;;1.95;1.05;;;22.90;69.00;;;;;;5008593;28;20147;-77
2022/07/19 07:53:32;;;;;;;1.10;0.82;;;23.00;70.70;;;;;;5012655;28;20112;-78
2022/07/19 07:55:57;;;;;;;3.05;1.10;;;23.20;70.20;;;;;;5010331;28;20030;-82
2022/07/19 07:58:23;;;;;;;1.60;0.98;;;23.30;69.00;;;;;;5008708;28;20022;-80
2022/07/19 08:00:48;;;;;;;2.92;1.13;;;23.30;69.90;;;;;;5007937;28;20234;-77
2022/07/19 08:03:13;;;;;;;3.42;0.98;;;23.30;70.10;;;;;;5010209;28;20022;-80
2022/07/19 08:05:39;;;;;;;0.98;0.85;;;23.30;70.60;;;;;;5007885;28;20400;-82
2022/07/19 08:08:05;;;;;;;1.25;0.93;;;23.40;68.70;;;;;;5005224;28;20081;-77
2022/07/19 08:10:32;;;;;;;0.85;0.73;;;23.20;70.00;;;;;;5004315;28;20045;-78
2022/07/19 08:12:59;;;;;;;0.70;0.70;;;23.10;70.10;;;;;;5006237;28;20741;-78
2022/07/19 08:15:24;;;;;;;2.70;1.10;;;23.10;70.50;;;;;;5013203;28;20033;-78
2022/07/19 08:17:50;;;;;;;1.73;1.27;;;23.10;70.00;;;;;;5007537;28;20558;-79
2022/07/19 08:20:16;;;;;;;1.10;1.00;;;23.10;70.00;;;;;;5005292;28;20026;-79
2022/07/19 08:22:42;;;;;;;1.20;1.10;;;23.20;70.40;;;;;;5008773;28;20030;-77
2022/07/19 08:25:08;;;;;;;1.27;0.98;;;23.40;71.20;;;;;;5007448;28;20030;-80
2022/07/19 08:27:34;;;;;;;1.70;1.27;;;23.90;67.60;;;;;;5011917;28;20056;-80
2022/07/19 08:30:00;;;;;;;6.22;1.83;;;23.70;67.40;;;;;;5006519;28;20069;-83
2022/07/19 08:32:26;;;;;;;3.08;1.45;;;23.80;65.60;;;;;;5003113;28;20029;-80
2022/07/19 08:34:51;;;;;;;15.52;1.83;;;23.80;68.20;;;;;;5002659;28;20033;-80
2022/07/19 08:37:17;;;;;;;30.13;5.53;;;24.00;67.60;;;;;;5009098;28;20089;-79
2022/07/19 08:39:42;;;;;;;9.68;2.60;;;24.10;67.10;;;;;;5008169;28;20100;-79
2022/07/19 08:42:09;;;;;;;19.77;4.20;;;24.00;69.10;;;;;;5003835;28;20129;-83
2022/07/19 08:44:39;;;;;;;6.90;2.00;;;24.10;68.10;;;;;;5006943;28;20022;-83
2022/07/19 08:47:06;;;;;;;6.00;1.45;;;24.20;68.60;;;;;;5004089;28;20038;-82
2022/07/19 08:49:32;;;;;;;2.25;1.58;;;24.40;69.50;;;;;;5009666;28;20033;-81
2022/07/19 08:51:58;;;;;;;1.77;1.08;;;24.40;69.40;;;;;;5007295;28;20034;-81
2022/07/19 08:54:25;;;;;;;5.15;2.40;;;25.00;64.00;;;;;;5000894;28;20025;-83
2022/07/19 08:59:35;;;;;;;1.60;1.20;;;25.20;67.40;;;;;;5006381;28;20864;-84
2022/07/19 09:02:00;;;;;;;1.70;1.20;;;25.60;64.40;;;;;;4990121;28;20034;-86
2022/07/19 09:04:28;;;;;;;1.40;1.10;;;25.20;64.90;;;;;;5005439;28;20116;-82
2022/07/19 09:06:56;;;;;;;6.03;2.83;;;25.60;66.70;;;;;;5006671;28;20128;-81
2022/07/19 09:09:27;;;;;;;2.03;1.83;;;25.50;72.10;;;;;;5003860;28;20041;-86
2022/07/19 09:12:04;;;;;;;24.52;21.80;;;25.20;62.50;;;;;;5005448;28;20037;-83
2022/07/19 09:14:35;;;;;;;8.57;5.70;;;25.10;63.00;;;;;;4999598;28;20527;-81
2022/07/19 09:17:02;;;;;;;;;;;24.80;64.50;;;;;;5003919;28;20087;-82
2022/07/19 09:19:31;;;;;;;1.67;1.30;;;25.20;61.10;;;;;;4986772;28;19916;-83
2022/07/19 09:22:08;;;;;;;4.60;2.05;;;25.70;60.10;;;;;;5006746;28;20034;-83
2022/07/19 09:24:40;;;;;;;2.05;1.52;;;26.00;59.10;;;;;;4998465;28;20025;-79
2022/07/19 09:27:13;;;;;;;3.20;1.35;;;26.00;61.80;;;;;;5005427;28;20033;-79
2022/07/19 09:29:41;;;;;;;2.08;1.10;;;26.20;58.00;;;;;;5003422;28;20033;-78
2022/07/19 09:32:22;;;;;;;1.20;1.10;;;25.80;59.20;;;;;;5000980;28;20096;-78
2022/07/19 09:34:52;;;;;;;1.85;1.15;;;25.00;63.50;;;;;;5007070;28;20026;-80
2022/07/19 09:37:26;;;;;;;1.40;0.93;;;24.50;67.90;;;;;;5011150;28;20041;-81
2022/07/19 09:39:54;;;;;;;1.70;1.35;;;24.60;70.20;;;;;;5015749;28;20091;-83
2022/07/19 09:42:22;;;;;;;1.10;1.00;;;24.10;72.70;;;;;;5009991;28;20699;-81
2022/07/19 09:44:58;;;;;;;1.63;1.30;;;24.50;70.30;;;;;;5012577;28;20034;-87
2022/07/19 09:47:31;;;;;;;2.45;1.23;;;24.50;70.80;;;;;;5016274;28;20030;-86
2022/07/19 09:49:57;;;;;;;1.52;1.23;;;24.50;70.00;;;;;;5009002;28;20088;-86
2022/07/19 09:52:24;;;;;;;1.15;0.95;;;;;;;;;;5024447;28;20381;-85
2022/07/19 09:54:51;;;;;;;2.85;1.33;;;25.60;56.60;;;;;;5012703;28;20049;-85
2022/07/19 09:57:22;;;;;;;9.27;2.22;;;25.90;55.30;;;;;;5011288;28;20033;-83
2022/07/19 09:59:51;;;;;;;1.83;1.40;;;26.00;55.20;;;;;;5008682;28;20077;-83
2022/07/19 10:02:21;;;;;;;1.27;0.95;;;25.60;55.70;;;;;;5006866;28;20036;-83
2022/07/19 10:04:46;;;;;;;1.80;1.10;;;25.30;56.40;;;;;;5003179;28;20221;-85
2022/07/19 10:07:13;;;;;;;2.60;1.42;;;25.80;56.60;;;;;;5005205;28;20452;-88
2022/07/19 10:09:40;;;;;;;1.30;1.00;;;25.70;57.00;;;;;;5005110;28;20408;-85
2022/07/19 10:12:06;;;;;;;0.93;0.77;;;26.10;54.50;;;;;;5007423;28;20034;-82
2022/07/19 10:14:33;;;;;;;1.70;1.48;;;27.00;54.00;;;;;;5004480;28;20380;-81
2022/07/19 10:17:08;;;;;;;1.92;1.02;;;27.00;52.90;;;;;;5005780;28;20058;-83
2022/07/19 10:19:45;;;;;;;2.85;1.20;;;25.60;56.90;;;;;;5001860;28;20022;-80
2022/07/19 10:22:14;;;;;;;2.30;1.13;;;25.20;57.90;;;;;;5007531;28;20116;-78
2022/07/19 10:24:57;;;;;;;1.30;1.05;;;24.70;60.70;;;;;;5007983;28;20502;-84
2022/07/19 10:27:25;;;;;;;2.15;0.90;;;24.10;61.90;;;;;;5006457;28;20026;-85
2022/07/19 10:29:57;;;;;;;1.10;1.00;;;25.40;57.80;;;;;;5012809;28;20396;-84
2022/07/19 10:32:28;;;;;;;1.30;1.20;;;25.50;57.80;;;;;;5000199;28;20147;-81
2022/07/19 10:35:26;;;;;;;1.80;1.30;;;25.40;57.90;;;;;;5004416;28;20033;-83
2022/07/19 10:38:00;;;;;;;2.22;1.30;;;25.60;55.10;;;;;;5001563;28;20025;-81
2022/07/19 10:40:48;;;;;;;1.95;1.35;;;26.00;56.90;;;;;;5002244;28;20026;-82
2022/07/19 10:43:13;;;;;;;1.90;1.20;;;27.20;51.70;;;;;;5004728;28;20543;-77
2022/07/19 10:46:02;;;;;;;1.13;0.85;;;27.10;54.40;;;;;;4997411;28;20026;-78
2022/07/19 10:48:50;;;;;;;3.97;1.10;;;26.10;55.60;;;;;;5000419;28;20025;-78
2022/07/19 10:51:30;;;;;;;1.40;1.13;;;26.60;50.90;;;;;;5011983;28;20451;-80
2022/07/19 10:54:07;;;;;;;1.38;1.08;;;28.50;48.90;;;;;;5003347;28;20029;-79
2022/07/19 10:56:38;;;;;;;0.80;0.80;;;28.00;51.40;;;;;;5007161;28;20041;-77
2022/07/19 10:59:07;;;;;;;3.17;1.52;;;27.60;49.20;;;;;;5006014;28;20030;-80
2022/07/19 11:01:35;;;;;;;1.77;1.20;;;28.20;48.00;;;;;;5005759;28;20053;-81
2022/07/19 11:04:21;;;;;;;1.48;1.00;;;27.70;51.80;;;;;;5006022;28;20669;-80
2022/07/19 11:06:47;;;;;;;1.45;1.10;;;27.70;51.50;;;;;;5006311;28;20054;-84
2022/07/19 11:09:12;;;;;;;1.77;1.20;;;26.70;52.70;;;;;;5000360;28;20432;-78
2022/07/19 11:11:38;;;;;;;1.05;0.93;;;26.90;54.10;;;;;;5001876;28;20512;-79
2022/07/19 11:14:04;;;;;;;2.63;1.00;;;26.60;54.60;;;;;;5006708;28;20530;-76
2022/07/19 11:16:30;;;;;;;2.10;1.20;;;26.00;55.50;;;;;;5004307;28;20064;-82
2022/07/19 11:19:03;;;;;;;1.05;0.98;;;25.60;56.30;;;;;;5005444;28;20113;-79
2022/07/19 11:21:32;;;;;;;1.95;1.00;;;27.40;45.60;;;;;;5003251;28;20121;-79
2022/07/19 11:23:58;;;;;;;1.15;0.98;;;28.20;45.20;;;;;;5002169;28;20121;-77
2022/07/19 11:26:24;;;;;;;1.70;1.20;;;29.10;53.10;;;;;;5004218;28;20026;-80
2022/07/19 11:28:50;;;;;;;1.27;1.10;;;27.90;56.80;;;;;;5003921;28;20528;-78
2022/07/19 11:31:20;;;;;;;1.35;0.88;;;28.20;53.80;;;;;;5001671;28;20040;-77
2022/07/19 11:33:48;;;;;;;1.00;0.90;;;28.40;54.40;;;;;;5003853;28;20040;-80
2022/07/19 11:36:15;;;;;;;15.80;1.90;;;28.00;57.00;;;;;;5008707;28;20038;-87
2022/07/19 11:38:43;;;;;;;2.20;1.33;;;27.80;59.70;;;;;;5000562;28;20030;-85
2022/07/19 11:41:14;;;;;;;2.38;1.45;;;27.90;58.40;;;;;;5005375;28;20034;-84
2022/07/19 11:43:41;;;;;;;2.95;1.20;;;27.80;57.90;;;;;;5006313;28;20033;-86
2022/07/19 11:46:07;;;;;;;1.52;1.15;;;;;;;;;;5004839;28;20025;-82
2022/07/19 11:48:32;;;;;;;1.38;0.95;;;28.30;44.40;;;;;;4998512;28;20068;-79
2022/07/19 11:51:07;;;;;;;1.35;1.13;;;30.50;39.60;;;;;;5004258;28;20059;-76
2022/07/19 11:53:35;;;;;;;1.23;1.13;;;31.60;37.50;;;;;;5004621;28;20037;-76
2022/07/19 11:56:24;;;;;;;1.05;0.95;;;32.20;36.60;;;;;;5002619;28;20034;-75
2022/07/19 11:58:51;;;;;;;1.40;1.10;;;32.60;36.30;;;;;;5000906;28;20053;-84
2022/07/19 12:01:27;;;;;;;1.63;1.23;;;33.00;36.70;;;;;;5003966;28;20046;-78
2022/07/19 12:03:54;;;;;;;2.22;1.40;;;33.20;35.30;;;;;;5004867;28;20026;-83
2022/07/19 12:06:33;;;;;;;1.73;1.23;;;33.30;40.90;;;;;;4998995;28;20041;-87
2022/07/19 12:09:04;;;;;;;2.38;1.50;;;33.70;38.00;;;;;;5005680;28;20069;-82
2022/07/19 12:11:29;;;;;;;;;;;34.20;35.90;;;;;;5009516;28;20033;-79
2022/07/19 12:13:57;;;;;;;1.25;1.15;;;34.20;41.50;;;;;;5004926;28;19920;-80
2022/07/19 12:16:23;;;;;;;3.17;1.50;;;34.60;39.80;;;;;;5003938;28;20042;-79
2022/07/19 12:18:58;;;;;;;1.92;1.58;;;34.80;35.30;;;;;;5007579;28;20041;-81
2022/07/19 12:21:31;;;;;;;1.65;1.20;;;35.10;37.40;;;;;;5007897;28;20038;-79
2022/07/19 12:24:13;;;;;;;2.78;1.50;;;35.20;36.80;;;;;;5010102;28;20032;-77
2022/07/19 12:27:00;;;;;;;1.85;1.25;;;35.50;38.40;;;;;;5003557;28;20048;-83
2022/07/19 12:29:40;;;;;;;1.58;1.45;;;35.80;36.70;;;;;;5006330;28;20092;-78
2022/07/19 12:32:08;;;;;;;1.92;1.52;;;34.80;36.30;;;;;;5000439;28;20550;-80
2022/07/19 12:34:50;;;;;;;1.50;1.40;;;34.80;35.30;;;;;;5008969;28;20049;-79
2022/07/19 12:37:31;;;;;;;1.58;1.48;;;35.30;35.90;;;;;;5004208;28;20033;-79
2022/07/19 12:40:21;;;;;;;1.60;1.50;;;36.20;37.90;;;;;;5012033;28;20163;-78
2022/07/19 12:43:02;;;;;;;1.07;1.03;;;36.90;37.00;;;;;;4998861;28;20114;-82
2022/07/19 12:45:31;;;;;;;1.48;1.38;;;36.90;35.20;;;;;;5007353;28;20025;-81
2022/07/19 12:47:57;;;;;;;2.10;1.42;;;37.60;30.20;;;;;;5003339;28;20072;-78
2022/07/19 12:50:45;;;;;;;1.90;1.30;;;37.40;30.50;;;;;;4998425;28;20616;-83
2022/07/19 12:53:12;;;;;;;2.88;1.40;;;37.90;29.40;;;;;;5006480;28;20515;-82
2022/07/19 12:55:40;;;;;;;1.90;1.50;;;37.80;31.70;;;;;;5012239;28;20076;-79
2022/07/19 12:58:07;;;;;;;2.30;1.30;;;38.10;32.10;;;;;;5008520;28;20200;-79
2022/07/19 13:00:35;;;;;;;1.60;1.48;;;38.50;29.80;;;;;;5005339;28;20018;-80
2022/07/19 13:03:01;;;;;;;1.63;1.30;;;38.90;28.90;;;;;;5008479;28;20034;-79
2022/07/19 13:05:28;;;;;;;1.33;1.23;;;40.10;28.50;;;;;;5010799;28;20117;-81
2022/07/19 13:07:54;;;;;;;1.67;1.30;;;41.00;29.80;;;;;;5009308;28;20034;-80